sensor_id;sensor_type;location;lat;lon;timestamp;P1;P2;P0
59546;PMS5003;45368;55.002;-1.592;2022-07-23T00:00:51;6;6;
59546;PMS5003;45368;55.002;-1.592;2022-07-23T00:03:19;6;6;
59546;PMS5003;45368;55.002;-1.592;2022-07-23T00:05:46;7;6;
59546;PMS5003;45368;55.002;-1.592;2022-07-23T00:09:09;12;9;
59546;PMS5003;45368;55.002;-1.592;2022-07-23T00:11:36;9;8;
59546;PMS5003;45368;55.002;-1.592;2022-07-23T00:14:03;9;8;
59546;PMS5003;45368;55.002;-1.592;2022-07-23T00:16:31;7;6;
59546;PMS5003;45368;55.002;-1.592;2022-07-23T00:18:58;6;5;
59546;PMS5003;45368;55.002;-1.592;2022-07-23T00:21:25;6;6;
59546;PMS5003;45368;55.002;-1.592;2022-07-23T00:23:51;7;7;
59546;PMS5003;45368;55.002;-1.592;2022-07-23T00:26:18;11;8;
59546;PMS5003;45368;55.002;-1.592;2022-07-23T00:28:46;9;8;
59546;PMS5003;45368;55.002;-1.592;2022-07-23T00:31:13;11;7;
59546;PMS5003;45368;55.002;-1.592;2022-07-23T00:33:40;10;10;
59546;PMS5003;45368;55.002;-1.592;2022-07-23T00:36:07;9;8;
59546;PMS5003;45368;55.002;-1.592;2022-07-23T00:38:35;10;10;
59546;PMS5003;45368;55.002;-1.592;2022-07-23T00:41:02;10;9;
59546;PMS5003;45368;55.002;-1.592;2022-07-23T00:43:30;8;8;
59546;PMS5003;45368;55.002;-1.592;2022-07-23T00:45:57;8;8;
59546;PMS5003;45368;55.002;-1.592;2022-07-23T00:48:24;10;10;
59546;PMS5003;45368;55.002;-1.592;2022-07-23T00:50:51;10;10;
59546;PMS5003;45368;55.002;-1.592;2022-07-23T00:53:17;9;8;
59546;PMS5003;45368;55.002;-1.592;2022-07-23T00:55:47;8;8;
59546;PMS5003;45368;55.002;-1.592;2022-07-23T00:58:14;7;7;
59546;PMS5003;45368;55.002;-1.592;2022-07-23T01:00:43;6;6;
59546;PMS5003;45368;55.002;-1.592;2022-07-23T01:03:11;9;8;
59546;PMS5003;45368;55.002;-1.592;2022-07-23T01:05:37;9;9;
59546;PMS5003;45368;55.002;-1.592;2022-07-23T01:08:05;7;7;
59546;PMS5003;45368;55.002;-1.592;2022-07-23T01:10:33;8;8;
59546;PMS5003;45368;55.002;-1.592;2022-07-23T01:13:01;10;9;
59546;PMS5003;45368;55.002;-1.592;2022-07-23T01:15:30;9;8;
59546;PMS5003;45368;55.002;-1.592;2022-07-23T01:17:58;7;6;
59546;PMS5003;45368;55.002;-1.592;2022-07-23T01:20:26;10;9;
59546;PMS5003;45368;55.002;-1.592;2022-07-23T01:22:53;11;9;
59546;PMS5003;45368;55.002;-1.592;2022-07-23T01:25:21;9;9;
59546;PMS5003;45368;55.002;-1.592;2022-07-23T01:27:49;10;10;
59546;PMS5003;45368;55.002;-1.592;2022-07-23T01:30:17;9;8;
59546;PMS5003;45368;55.002;-1.592;2022-07-23T01:32:45;8;7;
59546;PMS5003;45368;55.002;-1.592;2022-07-23T01:35:12;8;8;
59546;PMS5003;45368;55.002;-1.592;2022-07-23T01:37:39;8;7;
59546;PMS5003;45368;55.002;-1.592;2022-07-23T01:40:06;6;6;
59546;PMS5003;45368;55.002;-1.592;2022-07-23T01:42:34;7;7;
59546;PMS5003;45368;55.002;-1.592;2022-07-23T01:45:02;6;5;
59546;PMS5003;45368;55.002;-1.592;2022-07-23T01:47:30;6;5;
59546;PMS5003;45368;55.002;-1.592;2022-07-23T01:49:57;9;8;
59546;PMS5003;45368;55.002;-1.592;2022-07-23T01:52:24;8;8;
59546;PMS5003;45368;55.002;-1.592;2022-07-23T01:54:51;8;8;
59546;PMS5003;45368;55.002;-1.592;2022-07-23T01:57:18;8;8;
59546;PMS5003;45368;55.002;-1.592;2022-07-23T01:59:46;6;6;
59546;PMS5003;45368;55.002;-1.592;2022-07-23T02:02:13;7;7;
59546;PMS5003;45368;55.002;-1.592;2022-07-23T02:04:44;7;6;
59546;PMS5003;45368;55.002;-1.592;2022-07-23T02:07:11;6;5;
59546;PMS5003;45368;55.002;-1.592;2022-07-23T02:09:38;6;6;
59546;PMS5003;45368;55.002;-1.592;2022-07-23T02:12:05;7;7;
59546;PMS5003;45368;55.002;-1.592;2022-07-23T02:14:33;7;7;
59546;PMS5003;45368;55.002;-1.592;2022-07-23T02:17:00;7;6;
59546;PMS5003;45368;55.002;-1.592;2022-07-23T02:19:27;6;6;
59546;PMS5003;45368;55.002;-1.592;2022-07-23T02:21:54;6;6;
59546;PMS5003;45368;55.002;-1.592;2022-07-23T02:24:22;7;7;
59546;PMS5003;45368;55.002;-1.592;2022-07-23T02:26:49;6;6;
59546;PMS5003;45368;55.002;-1.592;2022-07-23T02:29:16;6;6;
59546;PMS5003;45368;55.002;-1.592;2022-07-23T02:31:43;5;5;
59546;PMS5003;45368;55.002;-1.592;2022-07-23T02:34:10;5;4;
59546;PMS5003;45368;55.002;-1.592;2022-07-23T02:36:37;5;4;
59546;PMS5003;45368;55.002;-1.592;2022-07-23T02:39:05;6;6;
59546;PMS5003;45368;55.002;-1.592;2022-07-23T02:41:31;4;3;
59546;PMS5003;45368;55.002;-1.592;2022-07-23T02:43:58;6;6;
59546;PMS5003;45368;55.002;-1.592;2022-07-23T02:46:25;4;4;
59546;PMS5003;45368;55.002;-1.592;2022-07-23T02:48:53;6;6;
59546;PMS5003;45368;55.002;-1.592;2022-07-23T02:51:20;6;6;
59546;PMS5003;45368;55.002;-1.592;2022-07-23T02:53:47;8;7;
59546;PMS5003;45368;55.002;-1.592;2022-07-23T02:56:13;4;3;
59546;PMS5003;45368;55.002;-1.592;2022-07-23T02:58:40;4;4;
59546;PMS5003;45368;55.002;-1.592;2022-07-23T03:01:07;6;6;
59546;PMS5003;45368;55.002;-1.592;2022-07-23T03:03:35;6;5;
59546;PMS5003;45368;55.002;-1.592;2022-07-23T03:06:02;5;5;
59546;PMS5003;45368;55.002;-1.592;2022-07-23T03:08:30;7;6;
59546;PMS5003;45368;55.002;-1.592;2022-07-23T03:10:57;5;5;
59546;PMS5003;45368;55.002;-1.592;2022-07-23T03:13:24;8;6;
59546;PMS5003;45368;55.002;-1.592;2022-07-23T03:15:52;7;6;
59546;PMS5003;45368;55.002;-1.592;2022-07-23T03:18:20;5;5;
59546;PMS5003;45368;55.002;-1.592;2022-07-23T03:20:48;5;5;
59546;PMS5003;45368;55.002;-1.592;2022-07-23T03:23:15;7;7;
59546;PMS5003;45368;55.002;-1.592;2022-07-23T03:25:43;10;7;
59546;PMS5003;45368;55.002;-1.592;2022-07-23T03:28:10;9;6;
59546;PMS5003;45368;55.002;-1.592;2022-07-23T03:30:36;5;5;
59546;PMS5003;45368;55.002;-1.592;2022-07-23T03:33:03;6;5;
59546;PMS5003;45368;55.002;-1.592;2022-07-23T03:35:30;6;6;
59546;PMS5003;45368;55.002;-1.592;2022-07-23T03:37:58;5;5;
59546;PMS5003;45368;55.002;-1.592;2022-07-23T03:40:25;6;6;
59546;PMS5003;45368;55.002;-1.592;2022-07-23T03:42:52;6;6;
59546;PMS5003;45368;55.002;-1.592;2022-07-23T03:45:19;7;7;
59546;PMS5003;45368;55.002;-1.592;2022-07-23T03:47:45;9;8;
59546;PMS5003;45368;55.002;-1.592;2022-07-23T03:50:12;7;6;
59546;PMS5003;45368;55.002;-1.592;2022-07-23T03:52:40;7;7;
59546;PMS5003;45368;55.002;-1.592;2022-07-23T03:55:08;9;9;
59546;PMS5003;45368;55.002;-1.592;2022-07-23T03:57:35;6;6;
59546;PMS5003;45368;55.002;-1.592;2022-07-23T04:00:05;8;7;
59546;PMS5003;45368;55.002;-1.592;2022-07-23T04:02:34;10;9;
59546;PMS5003;45368;55.002;-1.592;2022-07-23T04:05:01;7;7;
59546;PMS5003;45368;55.002;-1.592;2022-07-23T04:07:29;6;6;
59546;PMS5003;45368;55.002;-1.592;2022-07-23T04:09:57;6;6;
59546;PMS5003;45368;55.002;-1.592;2022-07-23T04:12:24;6;6;
59546;PMS5003;45368;55.002;-1.592;2022-07-23T04:14:50;9;7;
59546;PMS5003;45368;55.002;-1.592;2022-07-23T04:17:17;10;8;
59546;PMS5003;45368;55.002;-1.592;2022-07-23T04:19:44;5;5;
59546;PMS5003;45368;55.002;-1.592;2022-07-23T04:22:57;9;7;
59546;PMS5003;45368;55.002;-1.592;2022-07-23T04:25:24;8;8;
59546;PMS5003;45368;55.002;-1.592;2022-07-23T04:27:51;7;6;
59546;PMS5003;45368;55.002;-1.592;2022-07-23T04:30:18;7;7;
59546;PMS5003;45368;55.002;-1.592;2022-07-23T04:32:45;8;8;
59546;PMS5003;45368;55.002;-1.592;2022-07-23T04:35:13;11;10;
59546;PMS5003;45368;55.002;-1.592;2022-07-23T04:37:40;7;6;
59546;PMS5003;45368;55.002;-1.592;2022-07-23T04:40:07;8;8;
59546;PMS5003;45368;55.002;-1.592;2022-07-23T04:42:35;9;9;
59546;PMS5003;45368;55.002;-1.592;2022-07-23T04:45:02;9;7;
59546;PMS5003;45368;55.002;-1.592;2022-07-23T04:47:31;8;8;
59546;PMS5003;45368;55.002;-1.592;2022-07-23T04:49:58;8;6;
59546;PMS5003;45368;55.002;-1.592;2022-07-23T04:52:26;10;8;
59546;PMS5003;45368;55.002;-1.592;2022-07-23T04:54:53;7;7;
59546;PMS5003;45368;55.002;-1.592;2022-07-23T04:57:20;8;7;
59546;PMS5003;45368;55.002;-1.592;2022-07-23T04:59:47;9;9;
59546;PMS5003;45368;55.002;-1.592;2022-07-23T05:02:13;9;8;
59546;PMS5003;45368;55.002;-1.592;2022-07-23T05:04:40;12;11;
59546;PMS5003;45368;55.002;-1.592;2022-07-23T05:07:07;9;8;
59546;PMS5003;45368;55.002;-1.592;2022-07-23T05:09:35;12;10;
59546;PMS5003;45368;55.002;-1.592;2022-07-23T05:12:02;10;9;
59546;PMS5003;45368;55.002;-1.592;2022-07-23T05:14:30;9;9;
59546;PMS5003;45368;55.002;-1.592;2022-07-23T05:16:58;13;12;
59546;PMS5003;45368;55.002;-1.592;2022-07-23T05:19:25;13;11;
59546;PMS5003;45368;55.002;-1.592;2022-07-23T05:21:51;9;9;
59546;PMS5003;45368;55.002;-1.592;2022-07-23T05:24:18;12;11;
59546;PMS5003;45368;55.002;-1.592;2022-07-23T05:26:45;12;12;
59546;PMS5003;45368;55.002;-1.592;2022-07-23T05:29:12;14;13;
59546;PMS5003;45368;55.002;-1.592;2022-07-23T05:31:40;13;12;
59546;PMS5003;45368;55.002;-1.592;2022-07-23T05:34:07;12;11;
59546;PMS5003;45368;55.002;-1.592;2022-07-23T05:36:34;13;13;
59546;PMS5003;45368;55.002;-1.592;2022-07-23T05:39:01;13;12;
59546;PMS5003;45368;55.002;-1.592;2022-07-23T05:41:30;15;14;
59546;PMS5003;45368;55.002;-1.592;2022-07-23T05:43:57;15;13;
59546;PMS5003;45368;55.002;-1.592;2022-07-23T05:46:25;15;15;
59546;PMS5003;45368;55.002;-1.592;2022-07-23T05:48:52;17;16;
59546;PMS5003;45368;55.002;-1.592;2022-07-23T05:51:20;17;16;
59546;PMS5003;45368;55.002;-1.592;2022-07-23T05:53:48;13;12;
59546;PMS5003;45368;55.002;-1.592;2022-07-23T05:56:20;13;12;
59546;PMS5003;45368;55.002;-1.592;2022-07-23T05:58:47;15;14;
59546;PMS5003;45368;55.002;-1.592;2022-07-23T06:01:15;16;15;
59546;PMS5003;45368;55.002;-1.592;2022-07-23T06:03:42;14;13;
59546;PMS5003;45368;55.002;-1.592;2022-07-23T06:06:09;13;12;
59546;PMS5003;45368;55.002;-1.592;2022-07-23T06:08:35;16;14;
59546;PMS5003;45368;55.002;-1.592;2022-07-23T06:11:02;17;13;
59546;PMS5003;45368;55.002;-1.592;2022-07-23T06:13:30;13;12;
59546;PMS5003;45368;55.002;-1.592;2022-07-23T06:15:58;15;15;
59546;PMS5003;45368;55.002;-1.592;2022-07-23T06:18:26;13;12;
59546;PMS5003;45368;55.002;-1.592;2022-07-23T06:20:52;13;12;
59546;PMS5003;45368;55.002;-1.592;2022-07-23T06:23:19;17;17;
59546;PMS5003;45368;55.002;-1.592;2022-07-23T06:25:47;13;13;
59546;PMS5003;45368;55.002;-1.592;2022-07-23T06:28:13;15;15;
59546;PMS5003;45368;55.002;-1.592;2022-07-23T06:30:41;19;17;
59546;PMS5003;45368;55.002;-1.592;2022-07-23T06:33:09;12;11;
59546;PMS5003;45368;55.002;-1.592;2022-07-23T06:35:36;13;13;
59546;PMS5003;45368;55.002;-1.592;2022-07-23T06:38:03;16;14;
59546;PMS5003;45368;55.002;-1.592;2022-07-23T06:40:31;18;17;
59546;PMS5003;45368;55.002;-1.592;2022-07-23T06:42:58;14;14;
59546;PMS5003;45368;55.002;-1.592;2022-07-23T06:45:26;17;16;
59546;PMS5003;45368;55.002;-1.592;2022-07-23T06:47:53;16;16;
59546;PMS5003;45368;55.002;-1.592;2022-07-23T06:50:21;14;14;
59546;PMS5003;45368;55.002;-1.592;2022-07-23T06:52:47;15;15;
59546;PMS5003;45368;55.002;-1.592;2022-07-23T06:55:15;16;15;
59546;PMS5003;45368;55.002;-1.592;2022-07-23T06:57:42;14;13;
59546;PMS5003;45368;55.002;-1.592;2022-07-23T07:00:10;15;14;
59546;PMS5003;45368;55.002;-1.592;2022-07-23T07:02:38;14;13;
59546;PMS5003;45368;55.002;-1.592;2022-07-23T07:05:05;15;13;
59546;PMS5003;45368;55.002;-1.592;2022-07-23T07:07:32;17;15;
59546;PMS5003;45368;55.002;-1.592;2022-07-23T07:10:01;12;11;
59546;PMS5003;45368;55.002;-1.592;2022-07-23T07:12:29;15;15;
59546;PMS5003;45368;55.002;-1.592;2022-07-23T07:14:57;16;16;
59546;PMS5003;45368;55.002;-1.592;2022-07-23T07:17:24;14;14;
59546;PMS5003;45368;55.002;-1.592;2022-07-23T07:19:52;12;12;
59546;PMS5003;45368;55.002;-1.592;2022-07-23T07:22:20;15;15;
59546;PMS5003;45368;55.002;-1.592;2022-07-23T07:24:47;14;13;
59546;PMS5003;45368;55.002;-1.592;2022-07-23T07:27:15;18;17;
59546;PMS5003;45368;55.002;-1.592;2022-07-23T07:29:42;15;13;
59546;PMS5003;45368;55.002;-1.592;2022-07-23T07:32:09;10;10;
59546;PMS5003;45368;55.002;-1.592;2022-07-23T07:34:36;14;13;
59546;PMS5003;45368;55.002;-1.592;2022-07-23T07:37:03;13;12;
59546;PMS5003;45368;55.002;-1.592;2022-07-23T07:39:31;12;12;
59546;PMS5003;45368;55.002;-1.592;2022-07-23T07:41:58;14;13;
59546;PMS5003;45368;55.002;-1.592;2022-07-23T07:44:25;12;11;
59546;PMS5003;45368;55.002;-1.592;2022-07-23T07:46:53;8;8;
59546;PMS5003;45368;55.002;-1.592;2022-07-23T07:49:21;14;13;
59546;PMS5003;45368;55.002;-1.592;2022-07-23T07:51:49;15;12;
59546;PMS5003;45368;55.002;-1.592;2022-07-23T07:54:17;12;12;
59546;PMS5003;45368;55.002;-1.592;2022-07-23T07:56:44;11;11;
59546;PMS5003;45368;55.002;-1.592;2022-07-23T07:59:10;13;12;
59546;PMS5003;45368;55.002;-1.592;2022-07-23T08:01:37;9;9;
59546;PMS5003;45368;55.002;-1.592;2022-07-23T08:04:04;13;12;
59546;PMS5003;45368;55.002;-1.592;2022-07-23T08:06:31;11;11;
59546;PMS5003;45368;55.002;-1.592;2022-07-23T08:08:58;12;11;
59546;PMS5003;45368;55.002;-1.592;2022-07-23T08:11:26;12;11;
59546;PMS5003;45368;55.002;-1.592;2022-07-23T08:13:53;10;10;
59546;PMS5003;45368;55.002;-1.592;2022-07-23T08:16:20;9;8;
59546;PMS5003;45368;55.002;-1.592;2022-07-23T08:18:48;10;10;
59546;PMS5003;45368;55.002;-1.592;2022-07-23T08:21:16;9;9;
59546;PMS5003;45368;55.002;-1.592;2022-07-23T08:23:44;11;11;
59546;PMS5003;45368;55.002;-1.592;2022-07-23T08:26:11;12;11;
59546;PMS5003;45368;55.002;-1.592;2022-07-23T08:28:38;11;10;
59546;PMS5003;45368;55.002;-1.592;2022-07-23T08:31:06;9;9;
59546;PMS5003;45368;55.002;-1.592;2022-07-23T08:33:34;8;8;
59546;PMS5003;45368;55.002;-1.592;2022-07-23T08:36:02;8;8;
59546;PMS5003;45368;55.002;-1.592;2022-07-23T08:38:32;7;7;
59546;PMS5003;45368;55.002;-1.592;2022-07-23T08:40:59;5;5;
59546;PMS5003;45368;55.002;-1.592;2022-07-23T08:43:28;7;7;
59546;PMS5003;45368;55.002;-1.592;2022-07-23T08:45:56;8;8;
59546;PMS5003;45368;55.002;-1.592;2022-07-23T08:48:26;9;9;
59546;PMS5003;45368;55.002;-1.592;2022-07-23T08:50:56;9;8;
59546;PMS5003;45368;55.002;-1.592;2022-07-23T08:53:26;9;8;
59546;PMS5003;45368;55.002;-1.592;2022-07-23T08:55:56;10;10;
59546;PMS5003;45368;55.002;-1.592;2022-07-23T08:58:24;7;6;
59546;PMS5003;45368;55.002;-1.592;2022-07-23T09:00:51;9;7;
59546;PMS5003;45368;55.002;-1.592;2022-07-23T09:03:20;8;8;
59546;PMS5003;45368;55.002;-1.592;2022-07-23T09:05:49;7;7;
59546;PMS5003;45368;55.002;-1.592;2022-07-23T09:08:18;9;8;
59546;PMS5003;45368;55.002;-1.592;2022-07-23T09:10:47;9;9;
59546;PMS5003;45368;55.002;-1.592;2022-07-23T09:13:25;7;7;
59546;PMS5003;45368;55.002;-1.592;2022-07-23T09:15:55;7;7;
59546;PMS5003;45368;55.002;-1.592;2022-07-23T09:18:31;10;9;
59546;PMS5003;45368;55.002;-1.592;2022-07-23T09:21:06;8;8;
59546;PMS5003;45368;55.002;-1.592;2022-07-23T09:23:38;7;7;
59546;PMS5003;45368;55.002;-1.592;2022-07-23T09:26:40;6;6;
59546;PMS5003;45368;55.002;-1.592;2022-07-23T09:29:09;7;6;
59546;PMS5003;45368;55.002;-1.592;2022-07-23T09:31:46;9;9;
59546;PMS5003;45368;55.002;-1.592;2022-07-23T09:34:17;8;6;
59546;PMS5003;45368;55.002;-1.592;2022-07-23T09:36:47;7;7;
59546;PMS5003;45368;55.002;-1.592;2022-07-23T09:39:16;7;7;
59546;PMS5003;45368;55.002;-1.592;2022-07-23T09:41:52;7;7;
59546;PMS5003;45368;55.002;-1.592;2022-07-23T09:44:20;9;9;
59546;PMS5003;45368;55.002;-1.592;2022-07-23T09:46:48;6;6;
59546;PMS5003;45368;55.002;-1.592;2022-07-23T09:49:17;8;8;
59546;PMS5003;45368;55.002;-1.592;2022-07-23T09:51:47;7;7;
59546;PMS5003;45368;55.002;-1.592;2022-07-23T09:54:24;7;6;
59546;PMS5003;45368;55.002;-1.592;2022-07-23T09:56:54;7;7;
59546;PMS5003;45368;55.002;-1.592;2022-07-23T09:59:23;9;7;
59546;PMS5003;45368;55.002;-1.592;2022-07-23T10:01:52;7;7;
59546;PMS5003;45368;55.002;-1.592;2022-07-23T10:04:21;8;7;
59546;PMS5003;45368;55.002;-1.592;2022-07-23T10:06:51;6;6;
59546;PMS5003;45368;55.002;-1.592;2022-07-23T10:09:22;7;7;
59546;PMS5003;45368;55.002;-1.592;2022-07-23T10:11:52;7;7;
59546;PMS5003;45368;55.002;-1.592;2022-07-23T10:14:22;7;6;
59546;PMS5003;45368;55.002;-1.592;2022-07-23T10:16:49;5;5;
59546;PMS5003;45368;55.002;-1.592;2022-07-23T10:19:17;7;7;
59546;PMS5003;45368;55.002;-1.592;2022-07-23T10:21:46;6;6;
59546;PMS5003;45368;55.002;-1.592;2022-07-23T10:24:25;7;7;
59546;PMS5003;45368;55.002;-1.592;2022-07-23T10:27:09;7;6;
59546;PMS5003;45368;55.002;-1.592;2022-07-23T10:29:46;8;7;
59546;PMS5003;45368;55.002;-1.592;2022-07-23T10:32:23;9;9;
59546;PMS5003;45368;55.002;-1.592;2022-07-23T10:35:05;6;5;
59546;PMS5003;45368;55.002;-1.592;2022-07-23T10:37:41;6;5;
59546;PMS5003;45368;55.002;-1.592;2022-07-23T10:40:13;6;5;
59546;PMS5003;45368;55.002;-1.592;2022-07-23T10:42:41;4;4;
59546;PMS5003;45368;55.002;-1.592;2022-07-23T10:45:26;5;5;
59546;PMS5003;45368;55.002;-1.592;2022-07-23T10:47:55;6;6;
59546;PMS5003;45368;55.002;-1.592;2022-07-23T10:50:37;5;5;
59546;PMS5003;45368;55.002;-1.592;2022-07-23T10:53:09;6;5;
59546;PMS5003;45368;55.002;-1.592;2022-07-23T10:55:41;5;5;
59546;PMS5003;45368;55.002;-1.592;2022-07-23T10:58:10;4;3;
59546;PMS5003;45368;55.002;-1.592;2022-07-23T11:00:37;4;3;
59546;PMS5003;45368;55.002;-1.592;2022-07-23T11:03:06;5;5;
59546;PMS5003;45368;55.002;-1.592;2022-07-23T11:05:55;4;4;
59546;PMS5003;45368;55.002;-1.592;2022-07-23T11:08:22;3;3;
59546;PMS5003;45368;55.002;-1.592;2022-07-23T11:10:50;4;3;
59546;PMS5003;45368;55.002;-1.592;2022-07-23T11:13:28;3;2;
59546;PMS5003;45368;55.002;-1.592;2022-07-23T11:16:14;2;2;
59546;PMS5003;45368;55.002;-1.592;2022-07-23T11:18:59;4;4;
59546;PMS5003;45368;55.002;-1.592;2022-07-23T11:21:48;3;3;
59546;PMS5003;45368;55.002;-1.592;2022-07-23T11:24:17;2;2;
59546;PMS5003;45368;55.002;-1.592;2022-07-23T11:26:48;3;3;
59546;PMS5003;45368;55.002;-1.592;2022-07-23T11:29:51;4;4;
59546;PMS5003;45368;55.002;-1.592;2022-07-23T11:32:22;3;3;
59546;PMS5003;45368;55.002;-1.592;2022-07-23T11:34:52;1;1;
59546;PMS5003;45368;55.002;-1.592;2022-07-23T11:37:28;3;3;
59546;PMS5003;45368;55.002;-1.592;2022-07-23T11:39:58;3;3;
59546;PMS5003;45368;55.002;-1.592;2022-07-23T11:42:27;2;2;
59546;PMS5003;45368;55.002;-1.592;2022-07-23T11:44:54;4;3;
59546;PMS5003;45368;55.002;-1.592;2022-07-23T11:47:22;3;3;
59546;PMS5003;45368;55.002;-1.592;2022-07-23T11:49:51;3;3;
59546;PMS5003;45368;55.002;-1.592;2022-07-23T11:52:21;1;1;
59546;PMS5003;45368;55.002;-1.592;2022-07-23T11:54:49;3;3;
59546;PMS5003;45368;55.002;-1.592;2022-07-23T11:57:19;4;3;
59546;PMS5003;45368;55.002;-1.592;2022-07-23T11:59:51;5;3;
59546;PMS5003;45368;55.002;-1.592;2022-07-23T12:02:22;4;3;
59546;PMS5003;45368;55.002;-1.592;2022-07-23T12:04:51;5;4;
59546;PMS5003;45368;55.002;-1.592;2022-07-23T12:07:27;3;3;
59546;PMS5003;45368;55.002;-1.592;2022-07-23T12:09:56;4;4;
59546;PMS5003;45368;55.002;-1.592;2022-07-23T12:12:24;2;2;
59546;PMS5003;45368;55.002;-1.592;2022-07-23T12:14:53;4;4;
59546;PMS5003;45368;55.002;-1.592;2022-07-23T12:17:27;5;4;
59546;PMS5003;45368;55.002;-1.592;2022-07-23T12:19:56;5;5;
59546;PMS5003;45368;55.002;-1.592;2022-07-23T12:22:25;6;6;
59546;PMS5003;45368;55.002;-1.592;2022-07-23T12:24:56;6;6;
59546;PMS5003;45368;55.002;-1.592;2022-07-23T12:27:25;5;5;
59546;PMS5003;45368;55.002;-1.592;2022-07-23T12:29:53;5;5;
59546;PMS5003;45368;55.002;-1.592;2022-07-23T12:32:22;5;5;
59546;PMS5003;45368;55.002;-1.592;2022-07-23T12:35:01;7;7;
59546;PMS5003;45368;55.002;-1.592;2022-07-23T12:37:32;6;6;
59546;PMS5003;45368;55.002;-1.592;2022-07-23T12:40:34;6;6;
59546;PMS5003;45368;55.002;-1.592;2022-07-23T12:43:04;10;9;
59546;PMS5003;45368;55.002;-1.592;2022-07-23T12:45:49;10;9;
59546;PMS5003;45368;55.002;-1.592;2022-07-23T12:48:19;7;6;
59546;PMS5003;45368;55.002;-1.592;2022-07-23T12:50:50;6;6;
59546;PMS5003;45368;55.002;-1.592;2022-07-23T12:53:21;5;5;
59546;PMS5003;45368;55.002;-1.592;2022-07-23T12:55:50;4;4;
59546;PMS5003;45368;55.002;-1.592;2022-07-23T12:58:23;5;5;
59546;PMS5003;45368;55.002;-1.592;2022-07-23T13:00:52;4;4;
59546;PMS5003;45368;55.002;-1.592;2022-07-23T13:03:21;5;5;
59546;PMS5003;45368;55.002;-1.592;2022-07-23T13:05:54;3;3;
59546;PMS5003;45368;55.002;-1.592;2022-07-23T13:08:22;6;5;
59546;PMS5003;45368;55.002;-1.592;2022-07-23T13:10:51;6;6;
59546;PMS5003;45368;55.002;-1.592;2022-07-23T13:13:20;4;4;
59546;PMS5003;45368;55.002;-1.592;2022-07-23T13:15:48;6;5;
59546;PMS5003;45368;55.002;-1.592;2022-07-23T13:18:16;5;4;
59546;PMS5003;45368;55.002;-1.592;2022-07-23T13:20:45;4;4;
59546;PMS5003;45368;55.002;-1.592;2022-07-23T13:23:15;4;4;
59546;PMS5003;45368;55.002;-1.592;2022-07-23T13:25:43;4;3;
59546;PMS5003;45368;55.002;-1.592;2022-07-23T13:28:10;4;4;
59546;PMS5003;45368;55.002;-1.592;2022-07-23T13:30:38;5;5;
59546;PMS5003;45368;55.002;-1.592;2022-07-23T13:33:06;1;1;
59546;PMS5003;45368;55.002;-1.592;2022-07-23T13:35:34;5;5;
59546;PMS5003;45368;55.002;-1.592;2022-07-23T13:38:02;3;3;
59546;PMS5003;45368;55.002;-1.592;2022-07-23T13:40:29;5;5;
59546;PMS5003;45368;55.002;-1.592;2022-07-23T13:42:57;5;4;
59546;PMS5003;45368;55.002;-1.592;2022-07-23T13:45:25;5;5;
59546;PMS5003;45368;55.002;-1.592;2022-07-23T13:47:52;5;5;
59546;PMS5003;45368;55.002;-1.592;2022-07-23T13:50:19;3;3;
59546;PMS5003;45368;55.002;-1.592;2022-07-23T13:52:47;4;3;
59546;PMS5003;45368;55.002;-1.592;2022-07-23T13:55:15;5;5;
59546;PMS5003;45368;55.002;-1.592;2022-07-23T13:57:42;4;4;
59546;PMS5003;45368;55.002;-1.592;2022-07-23T14:00:10;5;5;
59546;PMS5003;45368;55.002;-1.592;2022-07-23T14:02:39;5;5;
59546;PMS5003;45368;55.002;-1.592;2022-07-23T14:05:08;5;5;
59546;PMS5003;45368;55.002;-1.592;2022-07-23T14:07:36;7;7;
59546;PMS5003;45368;55.002;-1.592;2022-07-23T14:10:04;7;7;
59546;PMS5003;45368;55.002;-1.592;2022-07-23T14:12:33;9;8;
59546;PMS5003;45368;55.002;-1.592;2022-07-23T14:15:02;6;5;
59546;PMS5003;45368;55.002;-1.592;2022-07-23T14:17:31;7;7;
59546;PMS5003;45368;55.002;-1.592;2022-07-23T14:19:59;6;6;
59546;PMS5003;45368;55.002;-1.592;2022-07-23T14:22:26;5;5;
59546;PMS5003;45368;55.002;-1.592;2022-07-23T14:24:53;6;5;
59546;PMS5003;45368;55.002;-1.592;2022-07-23T14:27:20;8;8;
59546;PMS5003;45368;55.002;-1.592;2022-07-23T14:29:47;9;6;
59546;PMS5003;45368;55.002;-1.592;2022-07-23T14:32:15;6;6;
59546;PMS5003;45368;55.002;-1.592;2022-07-23T14:34:42;8;6;
59546;PMS5003;45368;55.002;-1.592;2022-07-23T14:37:09;7;6;
59546;PMS5003;45368;55.002;-1.592;2022-07-23T14:39:37;9;7;
59546;PMS5003;45368;55.002;-1.592;2022-07-23T14:42:05;8;7;
59546;PMS5003;45368;55.002;-1.592;2022-07-23T14:44:33;10;7;
59546;PMS5003;45368;55.002;-1.592;2022-07-23T14:47:02;7;6;
59546;PMS5003;45368;55.002;-1.592;2022-07-23T14:49:30;7;7;
59546;PMS5003;45368;55.002;-1.592;2022-07-23T14:51:59;9;8;
59546;PMS5003;45368;55.002;-1.592;2022-07-23T14:54:27;6;6;
59546;PMS5003;45368;55.002;-1.592;2022-07-23T14:56:56;7;7;
59546;PMS5003;45368;55.002;-1.592;2022-07-23T14:59:24;8;6;
59546;PMS5003;45368;55.002;-1.592;2022-07-23T15:01:53;6;6;
59546;PMS5003;45368;55.002;-1.592;2022-07-23T15:04:20;5;5;
59546;PMS5003;45368;55.002;-1.592;2022-07-23T15:06:48;8;7;
59546;PMS5003;45368;55.002;-1.592;2022-07-23T15:09:16;8;8;
59546;PMS5003;45368;55.002;-1.592;2022-07-23T15:11:43;7;7;
59546;PMS5003;45368;55.002;-1.592;2022-07-23T15:14:11;9;8;
59546;PMS5003;45368;55.002;-1.592;2022-07-23T15:16:38;6;6;
59546;PMS5003;45368;55.002;-1.592;2022-07-23T15:19:04;8;8;
59546;PMS5003;45368;55.002;-1.592;2022-07-23T15:21:32;7;7;
59546;PMS5003;45368;55.002;-1.592;2022-07-23T15:23:59;8;7;
59546;PMS5003;45368;55.002;-1.592;2022-07-23T15:26:27;8;7;
59546;PMS5003;45368;55.002;-1.592;2022-07-23T15:28:56;7;7;
59546;PMS5003;45368;55.002;-1.592;2022-07-23T15:31:24;6;6;
59546;PMS5003;45368;55.002;-1.592;2022-07-23T15:33:52;7;7;
59546;PMS5003;45368;55.002;-1.592;2022-07-23T15:36:19;6;6;
59546;PMS5003;45368;55.002;-1.592;2022-07-23T15:38:47;7;7;
59546;PMS5003;45368;55.002;-1.592;2022-07-23T15:41:15;7;6;
59546;PMS5003;45368;55.002;-1.592;2022-07-23T15:43:42;8;8;
59546;PMS5003;45368;55.002;-1.592;2022-07-23T15:46:10;11;11;
59546;PMS5003;45368;55.002;-1.592;2022-07-23T15:48:37;8;8;
59546;PMS5003;45368;55.002;-1.592;2022-07-23T15:51:05;6;6;
59546;PMS5003;45368;55.002;-1.592;2022-07-23T15:53:33;8;7;
59546;PMS5003;45368;55.002;-1.592;2022-07-23T15:56:01;11;9;
59546;PMS5003;45368;55.002;-1.592;2022-07-23T15:58:29;8;8;
59546;PMS5003;45368;55.002;-1.592;2022-07-23T16:00:57;11;8;
59546;PMS5003;45368;55.002;-1.592;2022-07-23T16:03:24;9;9;
59546;PMS5003;45368;55.002;-1.592;2022-07-23T16:05:52;7;7;
59546;PMS5003;45368;55.002;-1.592;2022-07-23T16:08:19;7;6;
59546;PMS5003;45368;55.002;-1.592;2022-07-23T16:10:46;11;10;
59546;PMS5003;45368;55.002;-1.592;2022-07-23T16:13:14;8;8;
59546;PMS5003;45368;55.002;-1.592;2022-07-23T16:15:42;11;11;
59546;PMS5003;45368;55.002;-1.592;2022-07-23T16:18:09;10;10;
59546;PMS5003;45368;55.002;-1.592;2022-07-23T16:20:37;9;8;
59546;PMS5003;45368;55.002;-1.592;2022-07-23T16:23:05;7;7;
59546;PMS5003;45368;55.002;-1.592;2022-07-23T16:25:32;7;7;
59546;PMS5003;45368;55.002;-1.592;2022-07-23T16:27:59;9;8;
59546;PMS5003;45368;55.002;-1.592;2022-07-23T16:30:27;7;6;
59546;PMS5003;45368;55.002;-1.592;2022-07-23T16:32:55;10;10;
59546;PMS5003;45368;55.002;-1.592;2022-07-23T16:35:22;4;4;
59546;PMS5003;45368;55.002;-1.592;2022-07-23T16:37:49;3;3;